sensor_id;sensor_type;location;lat;lon;timestamp;P1;P2;P0
60245;PMS5003;46107;53.356;-1.524;2024-01-30T00:02:25;38;32;
60245;PMS5003;46107;53.356;-1.524;2024-01-30T00:05:04;28;28;
60245;PMS5003;46107;53.356;-1.524;2024-01-30T00:07:33;48;39;
60245;PMS5003;46107;53.356;-1.524;2024-01-30T00:10:00;39;34;
60245;PMS5003;46107;53.356;-1.524;2024-01-30T00:12:28;46;38;
60245;PMS5003;46107;53.356;-1.524;2024-01-30T00:14:56;39;36;
60245;PMS5003;46107;53.356;-1.524;2024-01-30T00:17:23;40;37;
60245;PMS5003;46107;53.356;-1.524;2024-01-30T00:19:50;44;41;
60245;PMS5003;46107;53.356;-1.524;2024-01-30T00:22:19;47;43;
60245;PMS5003;46107;53.356;-1.524;2024-01-30T00:24:46;50;44;
60245;PMS5003;46107;53.356;-1.524;2024-01-30T00:27:14;43;37;
60245;PMS5003;46107;53.356;-1.524;2024-01-30T00:29:42;50;43;
60245;PMS5003;46107;53.356;-1.524;2024-01-30T00:32:10;47;42;
60245;PMS5003;46107;53.356;-1.524;2024-01-30T00:34:41;48;42;
60245;PMS5003;46107;53.356;-1.524;2024-01-30T00:37:08;49;42;
60245;PMS5003;46107;53.356;-1.524;2024-01-30T00:39:36;46;41;
60245;PMS5003;46107;53.356;-1.524;2024-01-30T00:42:05;46;40;
60245;PMS5003;46107;53.356;-1.524;2024-01-30T00:44:34;47;41;
60245;PMS5003;46107;53.356;-1.524;2024-01-30T00:47:04;49;42;
60245;PMS5003;46107;53.356;-1.524;2024-01-30T00:49:32;42;37;
60245;PMS5003;46107;53.356;-1.524;2024-01-30T00:52:05;48;42;
60245;PMS5003;46107;53.356;-1.524;2024-01-30T00:54:34;44;37;
60245;PMS5003;46107;53.356;-1.524;2024-01-30T00:57:01;45;38;
60245;PMS5003;46107;53.356;-1.524;2024-01-30T00:59:32;49;43;
60245;PMS5003;46107;53.356;-1.524;2024-01-30T01:02:11;30;30;
60245;PMS5003;46107;53.356;-1.524;2024-01-30T01:04:38;40;33;
60245;PMS5003;46107;53.356;-1.524;2024-01-30T01:07:06;41;37;
60245;PMS5003;46107;53.356;-1.524;2024-01-30T01:09:37;45;40;
60245;PMS5003;46107;53.356;-1.524;2024-01-30T01:12:06;43;36;
60245;PMS5003;46107;53.356;-1.524;2024-01-30T01:14:34;39;34;
60245;PMS5003;46107;53.356;-1.524;2024-01-30T01:17:01;41;35;
60245;PMS5003;46107;53.356;-1.524;2024-01-30T01:19:28;39;35;
60245;PMS5003;46107;53.356;-1.524;2024-01-30T01:21:56;36;34;
60245;PMS5003;46107;53.356;-1.524;2024-01-30T01:24:24;44;35;
60245;PMS5003;46107;53.356;-1.524;2024-01-30T01:26:51;39;35;
60245;PMS5003;46107;53.356;-1.524;2024-01-30T01:29:21;39;35;
60245;PMS5003;46107;53.356;-1.524;2024-01-30T01:31:50;40;36;
60245;PMS5003;46107;53.356;-1.524;2024-01-30T01:34:18;43;39;
60245;PMS5003;46107;53.356;-1.524;2024-01-30T01:36:46;35;31;
60245;PMS5003;46107;53.356;-1.524;2024-01-30T01:39:14;37;32;
60245;PMS5003;46107;53.356;-1.524;2024-01-30T01:41:42;34;27;
60245;PMS5003;46107;53.356;-1.524;2024-01-30T01:44:09;37;30;
60245;PMS5003;46107;53.356;-1.524;2024-01-30T01:46:37;37;32;
60245;PMS5003;46107;53.356;-1.524;2024-01-30T01:49:12;32;27;
60245;PMS5003;46107;53.356;-1.524;2024-01-30T01:51:41;33;30;
60245;PMS5003;46107;53.356;-1.524;2024-01-30T01:54:09;36;29;
60245;PMS5003;46107;53.356;-1.524;2024-01-30T01:56:38;35;32;
60245;PMS5003;46107;53.356;-1.524;2024-01-30T01:59:07;33;29;
60245;PMS5003;46107;53.356;-1.524;2024-01-30T02:01:38;36;32;
60245;PMS5003;46107;53.356;-1.524;2024-01-30T02:04:07;28;26;
60245;PMS5003;46107;53.356;-1.524;2024-01-30T02:06:36;31;28;
60245;PMS5003;46107;53.356;-1.524;2024-01-30T02:09:04;29;27;
60245;PMS5003;46107;53.356;-1.524;2024-01-30T02:11:36;24;23;
60245;PMS5003;46107;53.356;-1.524;2024-01-30T02:14:03;32;27;
60245;PMS5003;46107;53.356;-1.524;2024-01-30T02:16:32;35;27;
60245;PMS5003;46107;53.356;-1.524;2024-01-30T02:18:59;19;17;
60245;PMS5003;46107;53.356;-1.524;2024-01-30T02:21:28;13;13;
60245;PMS5003;46107;53.356;-1.524;2024-01-30T02:23:56;16;11;
60245;PMS5003;46107;53.356;-1.524;2024-01-30T02:26:28;9;8;
60245;PMS5003;46107;53.356;-1.524;2024-01-30T02:28:56;5;5;
60245;PMS5003;46107;53.356;-1.524;2024-01-30T02:31:24;7;5;
60245;PMS5003;46107;53.356;-1.524;2024-01-30T02:33:51;5;5;
60245;PMS5003;46107;53.356;-1.524;2024-01-30T02:36:19;5;5;
60245;PMS5003;46107;53.356;-1.524;2024-01-30T02:38:47;6;6;
60245;PMS5003;46107;53.356;-1.524;2024-01-30T02:41:17;5;5;
60245;PMS5003;46107;53.356;-1.524;2024-01-30T02:43:44;6;6;
60245;PMS5003;46107;53.356;-1.524;2024-01-30T02:46:13;6;5;
60245;PMS5003;46107;53.356;-1.524;2024-01-30T02:48:42;7;5;
60245;PMS5003;46107;53.356;-1.524;2024-01-30T02:51:12;7;5;
60245;PMS5003;46107;53.356;-1.524;2024-01-30T02:53:40;7;7;
60245;PMS5003;46107;53.356;-1.524;2024-01-30T02:56:08;9;6;
60245;PMS5003;46107;53.356;-1.524;2024-01-30T02:58:35;6;6;
60245;PMS5003;46107;53.356;-1.524;2024-01-30T03:01:06;8;7;
60245;PMS5003;46107;53.356;-1.524;2024-01-30T03:03:34;5;4;
60245;PMS5003;46107;53.356;-1.524;2024-01-30T03:06:01;5;4;
60245;PMS5003;46107;53.356;-1.524;2024-01-30T03:08:28;6;6;
60245;PMS5003;46107;53.356;-1.524;2024-01-30T03:10:56;7;5;
60245;PMS5003;46107;53.356;-1.524;2024-01-30T03:13:23;3;3;
60245;PMS5003;46107;53.356;-1.524;2024-01-30T03:15:51;3;3;
60245;PMS5003;46107;53.356;-1.524;2024-01-30T03:18:20;3;3;
60245;PMS5003;46107;53.356;-1.524;2024-01-30T03:20:47;5;4;
60245;PMS5003;46107;53.356;-1.524;2024-01-30T03:23:15;3;3;
60245;PMS5003;46107;53.356;-1.524;2024-01-30T03:25:43;3;3;
60245;PMS5003;46107;53.356;-1.524;2024-01-30T03:28:11;2;2;
60245;PMS5003;46107;53.356;-1.524;2024-01-30T03:30:41;1;1;
60245;PMS5003;46107;53.356;-1.524;2024-01-30T03:33:08;2;1;
60245;PMS5003;46107;53.356;-1.524;2024-01-30T03:35:36;2;2;
60245;PMS5003;46107;53.356;-1.524;2024-01-30T03:38:03;1;1;
60245;PMS5003;46107;53.356;-1.524;2024-01-30T03:40:30;2;2;
60245;PMS5003;46107;53.356;-1.524;2024-01-30T03:42:58;0;0;
60245;PMS5003;46107;53.356;-1.524;2024-01-30T03:45:25;1;1;
60245;PMS5003;46107;53.356;-1.524;2024-01-30T03:47:53;1;1;
60245;PMS5003;46107;53.356;-1.524;2024-01-30T03:50:22;1;1;
60245;PMS5003;46107;53.356;-1.524;2024-01-30T03:52:50;1;1;
60245;PMS5003;46107;53.356;-1.524;2024-01-30T03:55:20;0;0;
60245;PMS5003;46107;53.356;-1.524;2024-01-30T03:57:47;0;0;
60245;PMS5003;46107;53.356;-1.524;2024-01-30T04:00:15;0;0;
60245;PMS5003;46107;53.356;-1.524;2024-01-30T04:02:42;0;0;
60245;PMS5003;46107;53.356;-1.524;2024-01-30T04:05:09;1;1;
60245;PMS5003;46107;53.356;-1.524;2024-01-30T04:07:37;1;1;
60245;PMS5003;46107;53.356;-1.524;2024-01-30T04:10:07;1;1;
60245;PMS5003;46107;53.356;-1.524;2024-01-30T04:12:35;2;2;
60245;PMS5003;46107;53.356;-1.524;2024-01-30T04:15:04;1;1;
60245;PMS5003;46107;53.356;-1.524;2024-01-30T04:17:32;2;1;
60245;PMS5003;46107;53.356;-1.524;2024-01-30T04:19:59;0;0;
60245;PMS5003;46107;53.356;-1.524;2024-01-30T04:22:27;1;1;
60245;PMS5003;46107;53.356;-1.524;2024-01-30T04:24:56;1;1;
60245;PMS5003;46107;53.356;-1.524;2024-01-30T04:27:24;0;0;
60245;PMS5003;46107;53.356;-1.524;2024-01-30T04:29:54;2;1;
60245;PMS5003;46107;53.356;-1.524;2024-01-30T04:32:23;2;2;
60245;PMS5003;46107;53.356;-1.524;2024-01-30T04:34:50;1;1;
60245;PMS5003;46107;53.356;-1.524;2024-01-30T04:37:19;2;2;
60245;PMS5003;46107;53.356;-1.524;2024-01-30T04:39:46;1;1;
60245;PMS5003;46107;53.356;-1.524;2024-01-30T04:42:13;2;2;
60245;PMS5003;46107;53.356;-1.524;2024-01-30T04:44:43;1;1;
60245;PMS5003;46107;53.356;-1.524;2024-01-30T04:47:10;1;1;
60245;PMS5003;46107;53.356;-1.524;2024-01-30T04:49:38;1;1;
60245;PMS5003;46107;53.356;-1.524;2024-01-30T04:52:07;1;1;
60245;PMS5003;46107;53.356;-1.524;2024-01-30T04:54:35;1;1;
60245;PMS5003;46107;53.356;-1.524;2024-01-30T04:57:03;3;2;
60245;PMS5003;46107;53.356;-1.524;2024-01-30T04:59:32;1;1;
60245;PMS5003;46107;53.356;-1.524;2024-01-30T05:01:59;1;1;
60245;PMS5003;46107;53.356;-1.524;2024-01-30T05:04:26;3;3;
60245;PMS5003;46107;53.356;-1.524;2024-01-30T05:06:57;3;3;
60245;PMS5003;46107;53.356;-1.524;2024-01-30T05:09:27;3;2;
60245;PMS5003;46107;53.356;-1.524;2024-01-30T05:11:58;2;2;
60245;PMS5003;46107;53.356;-1.524;2024-01-30T05:14:28;2;2;
60245;PMS5003;46107;53.356;-1.524;2024-01-30T05:16:55;2;2;
60245;PMS5003;46107;53.356;-1.524;2024-01-30T05:19:23;2;2;
60245;PMS5003;46107;53.356;-1.524;2024-01-30T05:21:50;3;3;
60245;PMS5003;46107;53.356;-1.524;2024-01-30T05:24:18;6;3;
60245;PMS5003;46107;53.356;-1.524;2024-01-30T05:26:46;4;3;
60245;PMS5003;46107;53.356;-1.524;2024-01-30T05:29:14;3;3;
60245;PMS5003;46107;53.356;-1.524;2024-01-30T05:31:41;3;3;
60245;PMS5003;46107;53.356;-1.524;2024-01-30T05:34:10;1;1;
60245;PMS5003;46107;53.356;-1.524;2024-01-30T05:36:38;3;2;
60245;PMS5003;46107;53.356;-1.524;2024-01-30T05:39:06;2;1;
60245;PMS5003;46107;53.356;-1.524;2024-01-30T05:41:37;1;1;
60245;PMS5003;46107;53.356;-1.524;2024-01-30T05:44:07;3;2;
60245;PMS5003;46107;53.356;-1.524;2024-01-30T05:46:37;3;2;
60245;PMS5003;46107;53.356;-1.524;2024-01-30T05:49:07;2;2;
60245;PMS5003;46107;53.356;-1.524;2024-01-30T05:51:34;3;3;
60245;PMS5003;46107;53.356;-1.524;2024-01-30T05:54:02;1;1;
60245;PMS5003;46107;53.356;-1.524;2024-01-30T05:56:29;1;1;
60245;PMS5003;46107;53.356;-1.524;2024-01-30T05:58:57;0;0;
60245;PMS5003;46107;53.356;-1.524;2024-01-30T06:01:27;2;2;
60245;PMS5003;46107;53.356;-1.524;2024-01-30T06:03:55;2;2;
60245;PMS5003;46107;53.356;-1.524;2024-01-30T06:06:22;1;1;
60245;PMS5003;46107;53.356;-1.524;2024-01-30T06:08:51;1;1;
60245;PMS5003;46107;53.356;-1.524;2024-01-30T06:11:18;2;0;
60245;PMS5003;46107;53.356;-1.524;2024-01-30T06:13:45;0;0;
60245;PMS5003;46107;53.356;-1.524;2024-01-30T06:16:13;1;1;
60245;PMS5003;46107;53.356;-1.524;2024-01-30T06:18:46;1;1;
60245;PMS5003;46107;53.356;-1.524;2024-01-30T06:21:13;0;0;
60245;PMS5003;46107;53.356;-1.524;2024-01-30T06:23:40;0;0;
60245;PMS5003;46107;53.356;-1.524;2024-01-30T06:26:09;0;0;
60245;PMS5003;46107;53.356;-1.524;2024-01-30T06:28:37;0;0;
60245;PMS5003;46107;53.356;-1.524;2024-01-30T06:31:06;0;0;
60245;PMS5003;46107;53.356;-1.524;2024-01-30T06:33:35;0;0;
60245;PMS5003;46107;53.356;-1.524;2024-01-30T06:36:10;0;0;
60245;PMS5003;46107;53.356;-1.524;2024-01-30T06:38:40;0;0;
60245;PMS5003;46107;53.356;-1.524;2024-01-30T06:41:07;1;1;
60245;PMS5003;46107;53.356;-1.524;2024-01-30T06:43:35;0;0;
60245;PMS5003;46107;53.356;-1.524;2024-01-30T06:46:05;0;0;
60245;PMS5003;46107;53.356;-1.524;2024-01-30T06:48:33;0;0;
60245;PMS5003;46107;53.356;-1.524;2024-01-30T06:51:08;0;0;
60245;PMS5003;46107;53.356;-1.524;2024-01-30T06:53:37;0;0;
60245;PMS5003;46107;53.356;-1.524;2024-01-30T06:56:07;0;0;
60245;PMS5003;46107;53.356;-1.524;2024-01-30T06:58:34;0;0;
60245;PMS5003;46107;53.356;-1.524;2024-01-30T07:01:02;0;0;
60245;PMS5003;46107;53.356;-1.524;2024-01-30T07:03:30;0;0;
60245;PMS5003;46107;53.356;-1.524;2024-01-30T07:05:58;0;0;
60245;PMS5003;46107;53.356;-1.524;2024-01-30T07:08:25;0;0;
60245;PMS5003;46107;53.356;-1.524;2024-01-30T07:10:52;1;1;
60245;PMS5003;46107;53.356;-1.524;2024-01-30T07:13:21;0;0;
60245;PMS5003;46107;53.356;-1.524;2024-01-30T07:15:48;0;0;
60245;PMS5003;46107;53.356;-1.524;2024-01-30T07:18:18;0;0;
60245;PMS5003;46107;53.356;-1.524;2024-01-30T07:20:46;0;0;
60245;PMS5003;46107;53.356;-1.524;2024-01-30T07:23:16;0;0;
60245;PMS5003;46107;53.356;-1.524;2024-01-30T07:25:43;0;0;
60245;PMS5003;46107;53.356;-1.524;2024-01-30T07:28:10;0;0;
60245;PMS5003;46107;53.356;-1.524;2024-01-30T07:30:39;0;0;
60245;PMS5003;46107;53.356;-1.524;2024-01-30T07:33:06;0;0;
60245;PMS5003;46107;53.356;-1.524;2024-01-30T07:35:34;0;0;
60245;PMS5003;46107;53.356;-1.524;2024-01-30T07:38:01;0;0;
60245;PMS5003;46107;53.356;-1.524;2024-01-30T07:40:29;0;0;
60245;PMS5003;46107;53.356;-1.524;2024-01-30T07:42:58;1;1;
60245;PMS5003;46107;53.356;-1.524;2024-01-30T07:45:26;0;0;
60245;PMS5003;46107;53.356;-1.524;2024-01-30T07:47:54;0;0;
60245;PMS5003;46107;53.356;-1.524;2024-01-30T07:50:21;0;0;
60245;PMS5003;46107;53.356;-1.524;2024-01-30T07:52:48;1;1;
60245;PMS5003;46107;53.356;-1.524;2024-01-30T07:55:17;0;0;
60245;PMS5003;46107;53.356;-1.524;2024-01-30T07:57:45;0;0;
60245;PMS5003;46107;53.356;-1.524;2024-01-30T08:00:13;2;2;
60245;PMS5003;46107;53.356;-1.524;2024-01-30T08:02:41;0;0;
60245;PMS5003;46107;53.356;-1.524;2024-01-30T08:05:09;1;1;
60245;PMS5003;46107;53.356;-1.524;2024-01-30T08:07:41;0;0;
60245;PMS5003;46107;53.356;-1.524;2024-01-30T08:10:10;1;1;
60245;PMS5003;46107;53.356;-1.524;2024-01-30T08:12:38;0;0;
60245;PMS5003;46107;53.356;-1.524;2024-01-30T08:15:07;2;2;
60245;PMS5003;46107;53.356;-1.524;2024-01-30T08:17:35;1;1;
60245;PMS5003;46107;53.356;-1.524;2024-01-30T08:20:02;0;0;
60245;PMS5003;46107;53.356;-1.524;2024-01-30T08:22:29;1;0;
60245;PMS5003;46107;53.356;-1.524;2024-01-30T08:24:58;2;2;
60245;PMS5003;46107;53.356;-1.524;2024-01-30T08:27:27;2;2;
60245;PMS5003;46107;53.356;-1.524;2024-01-30T08:29:55;1;1;
60245;PMS5003;46107;53.356;-1.524;2024-01-30T08:32:22;2;1;
60245;PMS5003;46107;53.356;-1.524;2024-01-30T08:34:50;2;2;
60245;PMS5003;46107;53.356;-1.524;2024-01-30T08:37:18;1;1;
60245;PMS5003;46107;53.356;-1.524;2024-01-30T08:39:47;0;0;
60245;PMS5003;46107;53.356;-1.524;2024-01-30T08:42:15;1;1;
60245;PMS5003;46107;53.356;-1.524;2024-01-30T08:44:47;2;1;
60245;PMS5003;46107;53.356;-1.524;2024-01-30T08:47:15;1;1;
60245;PMS5003;46107;53.356;-1.524;2024-01-30T08:49:42;1;1;
60245;PMS5003;46107;53.356;-1.524;2024-01-30T08:52:13;0;0;
60245;PMS5003;46107;53.356;-1.524;2024-01-30T08:54:41;0;0;
60245;PMS5003;46107;53.356;-1.524;2024-01-30T08:57:08;0;0;
60245;PMS5003;46107;53.356;-1.524;2024-01-30T08:59:35;0;0;
60245;PMS5003;46107;53.356;-1.524;2024-01-30T09:02:03;0;0;
60245;PMS5003;46107;53.356;-1.524;2024-01-30T09:04:30;0;0;
60245;PMS5003;46107;53.356;-1.524;2024-01-30T09:06:58;0;0;
60245;PMS5003;46107;53.356;-1.524;2024-01-30T09:09:25;1;1;
60245;PMS5003;46107;53.356;-1.524;2024-01-30T09:11:52;0;0;
60245;PMS5003;46107;53.356;-1.524;2024-01-30T09:14:22;0;0;
60245;PMS5003;46107;53.356;-1.524;2024-01-30T09:16:50;0;0;
60245;PMS5003;46107;53.356;-1.524;2024-01-30T09:19:17;0;0;
60245;PMS5003;46107;53.356;-1.524;2024-01-30T09:21:45;0;0;
60245;PMS5003;46107;53.356;-1.524;2024-01-30T09:24:12;0;0;
60245;PMS5003;46107;53.356;-1.524;2024-01-30T09:26:39;0;0;
60245;PMS5003;46107;53.356;-1.524;2024-01-30T09:29:06;0;0;
60245;PMS5003;46107;53.356;-1.524;2024-01-30T09:31:34;0;0;
60245;PMS5003;46107;53.356;-1.524;2024-01-30T09:34:06;0;0;
60245;PMS5003;46107;53.356;-1.524;2024-01-30T09:36:34;0;0;
60245;PMS5003;46107;53.356;-1.524;2024-01-30T09:39:05;0;0;
60245;PMS5003;46107;53.356;-1.524;2024-01-30T09:41:33;1;1;
60245;PMS5003;46107;53.356;-1.524;2024-01-30T09:44:13;1;1;
60245;PMS5003;46107;53.356;-1.524;2024-01-30T09:46:42;1;1;
60245;PMS5003;46107;53.356;-1.524;2024-01-30T09:49:14;1;1;
60245;PMS5003;46107;53.356;-1.524;2024-01-30T09:51:44;1;1;
60245;PMS5003;46107;53.356;-1.524;2024-01-30T09:54:13;1;1;
60245;PMS5003;46107;53.356;-1.524;2024-01-30T09:56:42;0;0;
60245;PMS5003;46107;53.356;-1.524;2024-01-30T09:59:10;0;0;
60245;PMS5003;46107;53.356;-1.524;2024-01-30T10:01:40;0;0;
60245;PMS5003;46107;53.356;-1.524;2024-01-30T10:04:08;0;0;
60245;PMS5003;46107;53.356;-1.524;2024-01-30T10:06:36;0;0;
60245;PMS5003;46107;53.356;-1.524;2024-01-30T10:09:07;0;0;
60245;PMS5003;46107;53.356;-1.524;2024-01-30T10:11:35;0;0;
60245;PMS5003;46107;53.356;-1.524;2024-01-30T10:14:03;0;0;
60245;PMS5003;46107;53.356;-1.524;2024-01-30T10:16:30;0;0;
60245;PMS5003;46107;53.356;-1.524;2024-01-30T10:18:58;0;0;
60245;PMS5003;46107;53.356;-1.524;2024-01-30T10:21:25;0;0;
60245;PMS5003;46107;53.356;-1.524;2024-01-30T10:23:54;1;1;
60245;PMS5003;46107;53.356;-1.524;2024-01-30T10:26:21;0;0;
60245;PMS5003;46107;53.356;-1.524;2024-01-30T10:28:51;0;0;
60245;PMS5003;46107;53.356;-1.524;2024-01-30T10:31:19;0;0;
60245;PMS5003;46107;53.356;-1.524;2024-01-30T10:33:46;1;1;
60245;PMS5003;46107;53.356;-1.524;2024-01-30T10:36:15;1;1;
60245;PMS5003;46107;53.356;-1.524;2024-01-30T10:38:44;1;0;
60245;PMS5003;46107;53.356;-1.524;2024-01-30T10:41:14;2;2;
60245;PMS5003;46107;53.356;-1.524;2024-01-30T10:43:50;0;0;
60245;PMS5003;46107;53.356;-1.524;2024-01-30T10:46:26;2;2;
60245;PMS5003;46107;53.356;-1.524;2024-01-30T10:48:58;1;1;
60245;PMS5003;46107;53.356;-1.524;2024-01-30T10:51:27;1;1;
60245;PMS5003;46107;53.356;-1.524;2024-01-30T10:53:57;1;1;
60245;PMS5003;46107;53.356;-1.524;2024-01-30T10:56:24;1;1;
60245;PMS5003;46107;53.356;-1.524;2024-01-30T10:58:54;1;1;
60245;PMS5003;46107;53.356;-1.524;2024-01-30T11:01:22;2;1;
60245;PMS5003;46107;53.356;-1.524;2024-01-30T11:03:52;2;2;
60245;PMS5003;46107;53.356;-1.524;2024-01-30T11:06:22;2;2;
60245;PMS5003;46107;53.356;-1.524;2024-01-30T11:09:00;2;2;
60245;PMS5003;46107;53.356;-1.524;2024-01-30T11:11:27;0;0;
60245;PMS5003;46107;53.356;-1.524;2024-01-30T11:14:00;1;1;
60245;PMS5003;46107;53.356;-1.524;2024-01-30T11:16:30;3;2;
60245;PMS5003;46107;53.356;-1.524;2024-01-30T11:19:04;3;2;
60245;PMS5003;46107;53.356;-1.524;2024-01-30T11:21:40;2;2;
60245;PMS5003;46107;53.356;-1.524;2024-01-30T11:24:08;0;0;
60245;PMS5003;46107;53.356;-1.524;2024-01-30T11:26:36;1;1;
60245;PMS5003;46107;53.356;-1.524;2024-01-30T11:29:06;1;1;
60245;PMS5003;46107;53.356;-1.524;2024-01-30T11:31:34;0;0;
60245;PMS5003;46107;53.356;-1.524;2024-01-30T11:34:01;0;0;
60245;PMS5003;46107;53.356;-1.524;2024-01-30T11:36:29;0;0;
60245;PMS5003;46107;53.356;-1.524;2024-01-30T11:39:01;1;1;
60245;PMS5003;46107;53.356;-1.524;2024-01-30T11:41:28;0;0;
60245;PMS5003;46107;53.356;-1.524;2024-01-30T11:43:56;2;2;
60245;PMS5003;46107;53.356;-1.524;2024-01-30T11:46:26;1;1;
60245;PMS5003;46107;53.356;-1.524;2024-01-30T11:48:58;1;1;
60245;PMS5003;46107;53.356;-1.524;2024-01-30T11:51:27;1;1;
60245;PMS5003;46107;53.356;-1.524;2024-01-30T11:53:55;1;1;
60245;PMS5003;46107;53.356;-1.524;2024-01-30T11:56:23;1;1;
60245;PMS5003;46107;53.356;-1.524;2024-01-30T11:58:52;0;0;
60245;PMS5003;46107;53.356;-1.524;2024-01-30T12:01:19;0;0;
60245;PMS5003;46107;53.356;-1.524;2024-01-30T12:03:49;0;0;
60245;PMS5003;46107;53.356;-1.524;2024-01-30T12:06:17;1;1;
60245;PMS5003;46107;53.356;-1.524;2024-01-30T12:08:55;1;0;
60245;PMS5003;46107;53.356;-1.524;2024-01-30T12:11:23;0;0;
60245;PMS5003;46107;53.356;-1.524;2024-01-30T12:13:52;0;0;
60245;PMS5003;46107;53.356;-1.524;2024-01-30T12:16:22;0;0;
60245;PMS5003;46107;53.356;-1.524;2024-01-30T12:18:58;1;1;
60245;PMS5003;46107;53.356;-1.524;2024-01-30T12:21:27;0;0;
60245;PMS5003;46107;53.356;-1.524;2024-01-30T12:23:54;1;1;
60245;PMS5003;46107;53.356;-1.524;2024-01-30T12:26:22;1;1;
60245;PMS5003;46107;53.356;-1.524;2024-01-30T12:28:50;3;2;
60245;PMS5003;46107;53.356;-1.524;2024-01-30T12:31:25;1;1;
60245;PMS5003;46107;53.356;-1.524;2024-01-30T12:33:52;2;2;
60245;PMS5003;46107;53.356;-1.524;2024-01-30T12:36:19;1;1;
60245;PMS5003;46107;53.356;-1.524;2024-01-30T12:38:50;2;1;
60245;PMS5003;46107;53.356;-1.524;2024-01-30T12:41:17;2;2;
60245;PMS5003;46107;53.356;-1.524;2024-01-30T12:43:46;2;2;
60245;PMS5003;46107;53.356;-1.524;2024-01-30T12:46:16;0;0;
60245;PMS5003;46107;53.356;-1.524;2024-01-30T12:48:44;1;1;
60245;PMS5003;46107;53.356;-1.524;2024-01-30T12:51:12;1;1;
60245;PMS5003;46107;53.356;-1.524;2024-01-30T12:53:40;0;0;
60245;PMS5003;46107;53.356;-1.524;2024-01-30T12:56:08;0;0;
60245;PMS5003;46107;53.356;-1.524;2024-01-30T12:58:35;1;1;
60245;PMS5003;46107;53.356;-1.524;2024-01-30T13:01:03;1;1;
60245;PMS5003;46107;53.356;-1.524;2024-01-30T13:03:31;0;0;
60245;PMS5003;46107;53.356;-1.524;2024-01-30T13:05:58;1;1;
60245;PMS5003;46107;53.356;-1.524;2024-01-30T13:08:26;0;0;
60245;PMS5003;46107;53.356;-1.524;2024-01-30T13:10:54;0;0;
60245;PMS5003;46107;53.356;-1.524;2024-01-30T13:13:22;1;1;
60245;PMS5003;46107;53.356;-1.524;2024-01-30T13:15:49;2;2;
60245;PMS5003;46107;53.356;-1.524;2024-01-30T13:18:17;0;0;
60245;PMS5003;46107;53.356;-1.524;2024-01-30T13:20:44;1;1;
60245;PMS5003;46107;53.356;-1.524;2024-01-30T13:23:12;1;1;
60245;PMS5003;46107;53.356;-1.524;2024-01-30T13:25:41;2;2;
60245;PMS5003;46107;53.356;-1.524;2024-01-30T13:28:08;1;1;
60245;PMS5003;46107;53.356;-1.524;2024-01-30T13:30:36;1;1;
60245;PMS5003;46107;53.356;-1.524;2024-01-30T13:33:03;1;1;
60245;PMS5003;46107;53.356;-1.524;2024-01-30T13:35:31;1;1;
60245;PMS5003;46107;53.356;-1.524;2024-01-30T13:38:00;1;0;
60245;PMS5003;46107;53.356;-1.524;2024-01-30T13:40:29;1;1;
60245;PMS5003;46107;53.356;-1.524;2024-01-30T13:42:57;2;2;
60245;PMS5003;46107;53.356;-1.524;2024-01-30T13:45:25;2;2;
60245;PMS5003;46107;53.356;-1.524;2024-01-30T13:47:53;2;2;
60245;PMS5003;46107;53.356;-1.524;2024-01-30T13:50:21;1;1;
60245;PMS5003;46107;53.356;-1.524;2024-01-30T13:52:49;3;3;
60245;PMS5003;46107;53.356;-1.524;2024-01-30T13:55:16;3;3;
60245;PMS5003;46107;53.356;-1.524;2024-01-30T13:57:45;2;2;
60245;PMS5003;46107;53.356;-1.524;2024-01-30T14:00:13;0;0;
60245;PMS5003;46107;53.356;-1.524;2024-01-30T14:02:40;2;2;
60245;PMS5003;46107;53.356;-1.524;2024-01-30T14:05:16;2;2;
60245;PMS5003;46107;53.356;-1.524;2024-01-30T14:07:45;2;2;
60245;PMS5003;46107;53.356;-1.524;2024-01-30T14:10:13;1;1;
60245;PMS5003;46107;53.356;-1.524;2024-01-30T14:12:41;2;2;
60245;PMS5003;46107;53.356;-1.524;2024-01-30T14:15:09;2;2;
60245;PMS5003;46107;53.356;-1.524;2024-01-30T14:17:37;2;2;
60245;PMS5003;46107;53.356;-1.524;2024-01-30T14:20:05;1;1;
60245;PMS5003;46107;53.356;-1.524;2024-01-30T14:22:38;3;2;
60245;PMS5003;46107;53.356;-1.524;2024-01-30T14:25:06;0;0;
60245;PMS5003;46107;53.356;-1.524;2024-01-30T14:27:36;0;0;
60245;PMS5003;46107;53.356;-1.524;2024-01-30T14:30:04;0;0;
60245;PMS5003;46107;53.356;-1.524;2024-01-30T14:32:33;1;1;
60245;PMS5003;46107;53.356;-1.524;2024-01-30T14:35:00;1;1;
60245;PMS5003;46107;53.356;-1.524;2024-01-30T14:37:28;2;2;
60245;PMS5003;46107;53.356;-1.524;2024-01-30T14:39:58;3;3;
60245;PMS5003;46107;53.356;-1.524;2024-01-30T14:42:26;2;2;
60245;PMS5003;46107;53.356;-1.524;2024-01-30T14:44:54;1;1;
60245;PMS5003;46107;53.356;-1.524;2024-01-30T14:47:21;1;1;
60245;PMS5003;46107;53.356;-1.524;2024-01-30T14:49:48;2;2;
60245;PMS5003;46107;53.356;-1.524;2024-01-30T14:52:15;1;1;
60245;PMS5003;46107;53.356;-1.524;2024-01-30T14:54:43;2;2;
60245;PMS5003;46107;53.356;-1.524;2024-01-30T14:57:10;2;2;
60245;PMS5003;46107;53.356;-1.524;2024-01-30T14:59:38;1;1;
60245;PMS5003;46107;53.356;-1.524;2024-01-30T15:02:07;1;1;
60245;PMS5003;46107;53.356;-1.524;2024-01-30T15:04:36;2;1;
60245;PMS5003;46107;53.356;-1.524;2024-01-30T15:07:06;1;0;
60245;PMS5003;46107;53.356;-1.524;2024-01-30T15:09:33;3;2;
60245;PMS5003;46107;53.356;-1.524;2024-01-30T15:12:01;2;2;
60245;PMS5003;46107;53.356;-1.524;2024-01-30T15:14:28;2;1;
60245;PMS5003;46107;53.356;-1.524;2024-01-30T15:16:56;2;1;
60245;PMS5003;46107;53.356;-1.524;2024-01-30T15:19:23;1;1;
60245;PMS5003;46107;53.356;-1.524;2024-01-30T15:21:52;2;2;
60245;PMS5003;46107;53.356;-1.524;2024-01-30T15:24:20;2;2;
60245;PMS5003;46107;53.356;-1.524;2024-01-30T15:26:48;3;3;
60245;PMS5003;46107;53.356;-1.524;2024-01-30T15:29:16;2;2;
60245;PMS5003;46107;53.356;-1.524;2024-01-30T15:31:43;0;0;
60245;PMS5003;46107;53.356;-1.524;2024-01-30T15:34:11;2;2;
60245;PMS5003;46107;53.356;-1.524;2024-01-30T15:36:38;1;1;
60245;PMS5003;46107;53.356;-1.524;2024-01-30T15:39:06;2;2;
60245;PMS5003;46107;53.356;-1.524;2024-01-30T15:41:34;2;1;
60245;PMS5003;46107;53.356;-1.524;2024-01-30T15:44:01;1;1;
60245;PMS5003;46107;53.356;-1.524;2024-01-30T15:46:29;1;1;
60245;PMS5003;46107;53.356;-1.524;2024-01-30T15:48:56;1;0;
60245;PMS5003;46107;53.356;-1.524;2024-01-30T15:51:25;1;1;
60245;PMS5003;46107;53.356;-1.524;2024-01-30T15:53:54;1;1;
60245;PMS5003;46107;53.356;-1.524;2024-01-30T15:56:24;3;3;
60245;PMS5003;46107;53.356;-1.524;2024-01-30T15:58:51;5;3;
60245;PMS5003;46107;53.356;-1.524;2024-01-30T16:01:22;6;4;
60245;PMS5003;46107;53.356;-1.524;2024-01-30T16:03:51;3;3;
60245;PMS5003;46107;53.356;-1.524;2024-01-30T16:06:19;2;2;
60245;PMS5003;46107;53.356;-1.524;2024-01-30T16:08:47;5;3;
60245;PMS5003;46107;53.356;-1.524;2024-01-30T16:11:16;3;3;
60245;PMS5003;46107;53.356;-1.524;2024-01-30T16:13:46;5;5;
60245;PMS5003;46107;53.356;-1.524;2024-01-30T16:16:13;3;2;
60245;PMS5003;46107;53.356;-1.524;2024-01-30T16:18:42;3;3;
60245;PMS5003;46107;53.356;-1.524;2024-01-30T16:21:10;5;3;
60245;PMS5003;46107;53.356;-1.524;2024-01-30T16:23:40;5;1;
60245;PMS5003;46107;53.356;-1.524;2024-01-30T16:26:13;1;1;
60245;PMS5003;46107;53.356;-1.524;2024-01-30T16:28:41;5;3;
60245;PMS5003;46107;53.356;-1.524;2024-01-30T16:31:08;2;2;
60245;PMS5003;46107;53.356;-1.524;2024-01-30T16:33:38;5;4;
60245;PMS5003;46107;53.356;-1.524;2024-01-30T16:36:07;3;3;
60245;PMS5003;46107;53.356;-1.524;2024-01-30T16:38:40;6;3;